Time;durP1;ratioP1;P1;durP2;ratioP2;P2;SDS_P1;SDS_P2;PMS_P1;PMS_P2;Temp;Humidity;BMP_temperature;BMP_pressure;BME280_temperature;BME280_humidity;BME280_pressure;Samples;Min_cycle;Max_cycle;Signal;HPM_P1;HPM_P2
2021/06/16 00:00:10;;;;;;;7.60;6.80;;;;;;;;;;345192;28;1207;-73
2021/06/16 00:00:23;;;;;;;7.32;6.47;;;;;;;;;;343487;28;63139;-72
2021/06/16 00:00:36;;;;;;;8.98;6.82;;;;;;;;;;345169;28;1356;-73
2021/06/16 00:00:48;;;;;;;9.40;7.00;;;;;;;;;;345228;28;1339;-72
2021/06/16 00:01:01;;;;;;;9.52;6.80;;;;;;;;;;346600;28;1238;-73
2021/06/16 00:01:13;;;;;;;9.52;6.80;;;;;;;;;;346653;28;1115;-73
2021/06/16 00:01:25;;;;;;;9.23;6.90;;;;;;;;;;345160;28;1046;-72
2021/06/16 00:01:38;;;;;;;8.65;6.80;;;;;;;;;;344063;28;1097;-73
2021/06/16 00:01:56;;;;;;;8.18;6.80;;;;;;;;;;343399;28;1740;-73
2021/06/16 00:02:08;;;;;;;8.38;6.65;;;;;;;;;;341354;28;63935;-72
2021/06/16 00:02:21;;;;;;;9.93;6.63;;;;;;;;;;342756;28;1110;-72
2021/06/16 00:02:33;;;;;;;10.40;6.55;;;;;;;;;;342448;28;1133;-73
2021/06/16 00:02:45;;;;;;;9.32;6.50;;;;;;;;;;342630;28;1209;-72
2021/06/16 00:02:57;;;;;;;6.88;6.18;;;;;;;;;;342437;28;1922;-72
2021/06/16 00:03:10;;;;;;;7.03;6.13;;;;;;;;;;342621;28;1731;-72
2021/06/16 00:03:26;;;;;;;8.77;6.32;;;;;;;;;;340992;28;63962;-72
2021/06/16 00:03:38;;;;;;;9.25;6.57;;;;;;;;;;344602;28;1147;-72
2021/06/16 00:03:50;;;;;;;8.65;6.63;;;;;;;;;;345157;28;1091;-73
2021/06/16 00:04:04;;;;;;;8.38;6.50;;;;;;;;;;345316;28;1101;-73
2021/06/16 00:04:16;;;;;;;9.07;6.45;;;;;;;;;;343492;28;17314;-73
2021/06/16 00:04:28;;;;;;;9.18;6.50;;;;;;;;;;345285;28;1283;-72
2021/06/16 00:04:40;;;;;;;9.55;6.60;;;;;;;;;;345251;28;1260;-73
2021/06/16 00:04:52;;;;;;;10.20;6.53;;;;;;;;;;345357;28;1162;-73
2021/06/16 00:05:05;;;;;;;10.48;6.38;;;;;;;;;;345301;28;1027;-73
2021/06/16 00:05:19;;;;;;;9.93;6.47;;;;;;;;;;345156;28;1153;-72
2021/06/16 00:05:31;;;;;;;9.88;6.80;;;;;;;;;;343821;28;1187;-73
2021/06/16 00:05:43;;;;;;;8.40;6.78;;;;;;;;;;343879;28;1115;-73
2021/06/16 00:05:55;;;;;;;7.68;6.85;;;;;;;;;;343895;28;1060;-73
2021/06/16 00:06:08;;;;;;;8.48;6.85;;;;;;;;;;344001;28;1064;-73
2021/06/16 00:06:20;;;;;;;8.77;6.35;;;;;;;;;;344983;28;1181;-72
2021/06/16 00:06:33;;;;;;;8.45;6.40;;;;;;;;;;344934;28;995;-72
2021/06/16 00:06:45;;;;;;;9.30;6.38;;;;;;;;;;345224;28;1082;-72
2021/06/16 00:06:57;;;;;;;9.23;6.43;;;;;;;;;;345426;28;1125;-73
2021/06/16 00:07:09;;;;;;;7.15;6.35;;;;;;;;;;344723;28;1760;-73
2021/06/16 00:07:21;;;;;;;7.10;6.40;;;;;;;;;;343687;28;1603;-73
2021/06/16 00:07:34;;;;;;;7.22;6.40;;;;;;;;;;346164;28;1370;-73
2021/06/16 00:07:46;;;;;;;7.78;6.50;;;;;;;;;;346660;28;1086;-73
2021/06/16 00:07:58;;;;;;;8.15;6.72;;;;;;;;;;346725;28;1142;-72
2021/06/16 00:08:11;;;;;;;8.68;6.45;;;;;;;;;;346578;28;1330;-73
2021/06/16 00:08:24;;;;;;;10.43;6.60;;;;;;;;;;346710;28;1165;-72
2021/06/16 00:08:36;;;;;;;11.27;6.63;;;;;;;;;;346104;28;16011;-73
2021/06/16 00:08:48;;;;;;;9.48;6.60;;;;;;;;;;346636;28;1180;-72
2021/06/16 00:09:00;;;;;;;9.60;6.70;;;;;;;;;;345677;28;1069;-73
2021/06/16 00:09:12;;;;;;;8.98;6.75;;;;;;;;;;345500;28;995;-72
2021/06/16 00:09:24;;;;;;;9.30;7.22;;;;;;;;;;345551;28;1026;-73
2021/06/16 00:09:37;;;;;;;10.77;7.78;;;;;;;;;;345534;28;1128;-72
2021/06/16 00:09:49;;;;;;;10.95;7.75;;;;;;;;;;345183;28;1058;-72
2021/06/16 00:10:02;;;;;;;10.23;7.63;;;;;;;;;;345269;28;1042;-73
2021/06/16 00:10:15;;;;;;;9.90;7.60;;;;;;;;;;345262;28;1103;-73
2021/06/16 00:10:29;;;;;;;9.80;7.60;;;;;;;;;;345349;28;1327;-71
2021/06/16 00:10:41;;;;;;;8.77;7.00;;;;;;;;;;344679;28;17428;-73
2021/06/16 00:10:53;;;;;;;8.77;6.63;;;;;;;;;;345201;28;1096;-72
2021/06/16 00:11:07;;;;;;;10.70;6.90;;;;;;;;;;345273;28;1310;-72
2021/06/16 00:11:20;;;;;;;9.45;6.72;;;;;;;;;;344077;28;41030;-72
2021/06/16 00:11:36;;;;;;;8.05;6.70;;;;;;;;;;345222;28;1058;-73
2021/06/16 00:11:49;;;;;;;9.68;6.72;;;;;;;;;;342251;28;86695;-72
2021/06/16 00:12:01;;;;;;;10.55;6.78;;;;;;;;;;345632;28;1153;-73
2021/06/16 00:12:14;;;;;;;10.95;7.00;;;;;;;;;;345220;28;1165;-73
2021/06/16 00:12:26;;;;;;;9.27;6.72;;;;;;;;;;345367;28;1100;-72
2021/06/16 00:12:39;;;;;;;8.23;6.82;;;;;;;;;;344644;28;1443;-72
2021/06/16 00:12:51;;;;;;;8.13;6.78;;;;;;;;;;342816;28;1145;-72
2021/06/16 00:13:04;;;;;;;9.80;6.70;;;;;;;;;;342647;28;1026;-73
2021/06/16 00:13:17;;;;;;;9.45;6.63;;;;;;;;;;342466;28;1102;-73
2021/06/16 00:13:29;;;;;;;7.75;6.55;;;;;;;;;;342797;28;1090;-72
2021/06/16 00:13:41;;;;;;;8.70;6.63;;;;;;;;;;342746;28;1173;-73
2021/06/16 00:13:53;;;;;;;9.65;6.82;;;;;;;;;;342738;28;1017;-72
2021/06/16 00:14:06;;;;;;;10.07;7.10;;;;;;;;;;342837;28;1153;-72
2021/06/16 00:14:19;;;;;;;12.43;7.28;;;;;;;;;;342850;28;1121;-72
2021/06/16 00:14:31;;;;;;;11.73;7.00;;;;;;;;;;342849;28;1065;-73
2021/06/16 00:14:43;;;;;;;9.80;7.00;;;;;;;;;;342848;28;1053;-73
2021/06/16 00:14:55;;;;;;;8.60;7.03;;;;;;;;;;342860;28;1099;-72
2021/06/16 00:15:11;;;;;;;7.85;6.97;;;;;;;;;;342695;28;1199;-72
2021/06/16 00:15:32;;;;;;;8.63;6.97;;;;;;;;;;340617;28;64154;-73
2021/06/16 00:15:44;;;;;;;9.27;6.82;;;;;;;;;;340604;28;62739;-73
2021/06/16 00:15:56;;;;;;;9.27;6.70;;;;;;;;;;342631;28;1080;-72
2021/06/16 00:16:08;;;;;;;7.95;6.78;;;;;;;;;;342847;28;1082;-72
2021/06/16 00:16:20;;;;;;;7.95;6.85;;;;;;;;;;342766;28;1100;-73
2021/06/16 00:16:33;;;;;;;9.43;6.78;;;;;;;;;;342663;28;1452;-73
2021/06/16 00:16:45;;;;;;;10.35;6.70;;;;;;;;;;342841;28;1066;-73
2021/06/16 00:16:57;;;;;;;8.85;6.88;;;;;;;;;;342636;28;1162;-73
2021/06/16 00:17:09;;;;;;;8.18;6.90;;;;;;;;;;342785;28;1099;-72
2021/06/16 00:17:22;;;;;;;8.20;6.82;;;;;;;;;;342781;28;1177;-73
2021/06/16 00:17:34;;;;;;;8.32;6.75;;;;;;;;;;342743;28;1212;-73
2021/06/16 00:17:46;;;;;;;9.13;6.82;;;;;;;;;;342820;28;1126;-72
2021/06/16 00:17:58;;;;;;;9.10;6.82;;;;;;;;;;342039;28;1606;-72
2021/06/16 00:18:10;;;;;;;10.70;6.70;;;;;;;;;;343616;28;1090;-72
2021/06/16 00:18:22;;;;;;;10.57;6.68;;;;;;;;;;342948;28;1149;-73
2021/06/16 00:18:34;;;;;;;11.70;8.60;;;;;;;;;;342722;28;1291;-72
2021/06/16 00:18:46;;;;;;;16.50;13.93;;;;;;;;;;342657;28;1102;-73
2021/06/16 00:18:59;;;;;;;17.98;15.23;;;;;;;;;;342840;28;1209;-73
2021/06/16 00:19:11;;;;;;;14.35;11.18;;;;;;;;;;342855;28;1050;-72
2021/06/16 00:19:23;;;;;;;10.00;7.53;;;;;;;;;;342606;28;1103;-73
2021/06/16 00:19:35;;;;;;;9.57;6.90;;;;;;;;;;342762;28;1053;-73
2021/06/16 00:19:48;;;;;;;9.20;6.80;;;;;;;;;;342938;28;1076;-72
2021/06/16 00:20:00;;;;;;;9.40;6.85;;;;;;;;;;342703;28;1138;-72
2021/06/16 00:20:12;;;;;;;9.75;6.95;;;;;;;;;;342854;28;1053;-73
2021/06/16 00:20:25;;;;;;;9.35;6.90;;;;;;;;;;343040;28;1090;-72
2021/06/16 00:20:37;;;;;;;10.27;6.63;;;;;;;;;;342982;28;1010;-73
2021/06/16 00:20:50;;;;;;;10.38;6.72;;;;;;;;;;342696;28;1142;-72
2021/06/16 00:21:02;;;;;;;9.77;6.70;;;;;;;;;;342959;28;1165;-73
2021/06/16 00:21:16;;;;;;;8.82;7.10;;;;;;;;;;342912;28;1105;-73
2021/06/16 00:21:28;;;;;;;8.90;7.68;;;;;;;;;;342366;28;18059;-72
2021/06/16 00:21:41;;;;;;;9.50;7.80;;;;;;;;;;342670;28;983;-73
2021/06/16 00:21:53;;;;;;;11.93;8.85;;;;;;;;;;345233;28;1071;-72
2021/06/16 00:22:05;;;;;;;12.07;9.00;;;;;;;;;;345174;28;1173;-73
2021/06/16 00:22:17;;;;;;;11.98;8.88;;;;;;;;;;345179;28;1113;-72
2021/06/16 00:22:29;;;;;;;12.35;8.80;;;;;;;;;;345238;28;1124;-72
2021/06/16 00:22:42;;;;;;;14.63;10.30;;;;;;;;;;345305;28;1002;-72
2021/06/16 00:22:55;;;;;;;13.30;10.27;;;;;;;;;;345827;28;1047;-72
2021/06/16 00:23:07;;;;;;;13.45;10.05;;;;;;;;;;346458;28;1668;-73
2021/06/16 00:23:22;;;;;;;14.35;10.57;;;;;;;;;;346219;28;1550;-72
2021/06/16 00:23:34;;;;;;;12.95;10.20;;;;;;;;;;344501;28;63751;-73
2021/06/16 00:23:47;;;;;;;12.45;9.70;;;;;;;;;;346856;28;1098;-72
2021/06/16 00:24:00;;;;;;;12.73;9.20;;;;;;;;;;345083;28;1197;-72
2021/06/16 00:24:14;;;;;;;12.02;8.75;;;;;;;;;;344232;28;990;-72
2021/06/16 00:24:26;;;;;;;9.25;7.90;;;;;;;;;;346104;28;17903;-72
2021/06/16 00:24:38;;;;;;;9.70;8.40;;;;;;;;;;346660;28;1110;-73
2021/06/16 00:24:50;;;;;;;9.57;8.57;;;;;;;;;;346508;28;1473;-73
2021/06/16 00:25:05;;;;;;;9.45;8.38;;;;;;;;;;346465;28;1172;-71
2021/06/16 00:25:17;;;;;;;9.20;8.10;;;;;;;;;;345216;28;40843;-72
2021/06/16 00:25:29;;;;;;;9.32;8.27;;;;;;;;;;346436;28;1918;-72
2021/06/16 00:25:41;;;;;;;11.00;9.02;;;;;;;;;;346575;28;1097;-72
2021/06/16 00:25:53;;;;;;;11.05;9.25;;;;;;;;;;346501;28;1100;-72
2021/06/16 00:26:06;;;;;;;10.74;9.12;;;;;;;;;;346377;28;1198;-72
2021/06/16 00:26:20;;;;;;;11.18;8.80;;;;;;;;;;346147;28;16864;-72
2021/06/16 00:26:32;;;;;;;11.15;8.70;;;;;;;;;;344131;28;1174;-72
2021/06/16 00:26:44;;;;;;;11.40;8.90;;;;;;;;;;344035;28;1059;-72
2021/06/16 00:26:56;;;;;;;10.70;8.70;;;;;;;;;;344042;28;1185;-72
2021/06/16 00:27:09;;;;;;;11.10;8.27;;;;;;;;;;344233;28;1128;-72
2021/06/16 00:27:21;;;;;;;11.43;8.18;;;;;;;;;;344111;28;1157;-72
2021/06/16 00:27:33;;;;;;;11.35;8.40;;;;;;;;;;344191;28;1035;-72
2021/06/16 00:27:46;;;;;;;10.38;8.40;;;;;;;;;;343959;28;1059;-72
2021/06/16 00:27:58;;;;;;;9.00;8.00;;;;;;;;;;344136;28;1082;-72
2021/06/16 00:28:10;;;;;;;8.45;7.30;;;;;;;;;;344075;28;1105;-72
2021/06/16 00:28:22;;;;;;;8.32;7.10;;;;;;;;;;344208;28;1360;-72
2021/06/16 00:28:34;;;;;;;9.20;7.35;;;;;;;;;;344022;28;1174;-71
2021/06/16 00:28:46;;;;;;;8.95;7.35;;;;;;;;;;344055;28;1149;-72
2021/06/16 00:28:59;;;;;;;8.50;7.15;;;;;;;;;;344011;28;1125;-73
2021/06/16 00:29:11;;;;;;;8.10;7.10;;;;;;;;;;344229;28;1074;-74
2021/06/16 00:29:23;;;;;;;8.73;7.55;;;;;;;;;;344009;28;992;-72
2021/06/16 00:29:36;;;;;;;9.73;7.80;;;;;;;;;;343473;28;16656;-72
2021/06/16 00:29:48;;;;;;;9.88;7.82;;;;;;;;;;344120;28;1085;-72
2021/06/16 00:30:00;;;;;;;10.27;8.10;;;;;;;;;;344105;28;1097;-73
2021/06/16 00:30:12;;;;;;;11.05;8.32;;;;;;;;;;345292;28;1217;-72
2021/06/16 00:30:25;;;;;;;10.50;7.78;;;;;;;;;;344691;28;1195;-72
2021/06/16 00:30:37;;;;;;;9.80;7.78;;;;;;;;;;344983;28;1089;-72
2021/06/16 00:30:49;;;;;;;10.75;7.90;;;;;;;;;;345063;28;1652;-72
2021/06/16 00:31:02;;;;;;;11.07;7.95;;;;;;;;;;345224;28;1102;-72
2021/06/16 00:31:14;;;;;;;10.18;7.60;;;;;;;;;;345307;28;1090;-72
2021/06/16 00:31:27;;;;;;;9.38;7.80;;;;;;;;;;345110;28;1086;-72
2021/06/16 00:31:39;;;;;;;9.23;7.72;;;;;;;;;;345224;28;1018;-72
2021/06/16 00:31:51;;;;;;;9.02;7.30;;;;;;;;;;345040;28;1177;-72
2021/06/16 00:32:04;;;;;;;9.45;7.07;;;;;;;;;;345308;28;987;-72
2021/06/16 00:32:16;;;;;;;8.32;7.00;;;;;;;;;;344128;28;1094;-72
2021/06/16 00:32:28;;;;;;;8.32;7.10;;;;;;;;;;344037;28;1103;-73
2021/06/16 00:32:43;;;;;;;8.35;7.18;;;;;;;;;;344244;28;1160;-72
2021/06/16 00:32:55;;;;;;;9.13;7.35;;;;;;;;;;342050;28;63755;-72
2021/06/16 00:33:08;;;;;;;10.30;7.53;;;;;;;;;;343869;28;1080;-72
2021/06/16 00:33:20;;;;;;;10.52;7.53;;;;;;;;;;343746;28;1060;-72
2021/06/16 00:33:32;;;;;;;9.90;7.30;;;;;;;;;;343894;28;1106;-73
2021/06/16 00:33:44;;;;;;;9.65;7.10;;;;;;;;;;343841;28;1052;-72
2021/06/16 00:33:56;;;;;;;10.88;7.13;;;;;;;;;;344628;28;1368;-72
2021/06/16 00:34:09;;;;;;;11.63;7.22;;;;;;;;;;343933;28;1704;-72
2021/06/16 00:34:21;;;;;;;9.73;7.05;;;;;;;;;;343872;28;1141;-72
2021/06/16 00:34:33;;;;;;;8.02;6.70;;;;;;;;;;343915;28;1081;-72
2021/06/16 00:34:45;;;;;;;8.70;7.10;;;;;;;;;;343803;28;1051;-73
2021/06/16 00:34:57;;;;;;;10.10;7.40;;;;;;;;;;343814;28;1114;-72
2021/06/16 00:35:10;;;;;;;11.48;7.47;;;;;;;;;;343916;28;1115;-72
2021/06/16 00:35:22;;;;;;;10.30;7.05;;;;;;;;;;344430;28;1213;-71
2021/06/16 00:35:34;;;;;;;9.60;6.88;;;;;;;;;;345533;28;957;-72
2021/06/16 00:35:46;;;;;;;9.85;6.80;;;;;;;;;;345393;28;995;-72
2021/06/16 00:35:59;;;;;;;9.57;6.47;;;;;;;;;;345280;28;1912;-72
2021/06/16 00:36:11;;;;;;;9.00;6.65;;;;;;;;;;345321;28;1065;-72
2021/06/16 00:36:23;;;;;;;8.98;6.70;;;;;;;;;;344046;28;1100;-72
2021/06/16 00:36:35;;;;;;;9.02;7.20;;;;;;;;;;343902;28;1119;-72
2021/06/16 00:36:47;;;;;;;9.05;7.00;;;;;;;;;;344029;28;1114;-72
2021/06/16 00:37:00;;;;;;;9.13;6.93;;;;;;;;;;343897;28;1058;-72
2021/06/16 00:37:12;;;;;;;8.80;6.70;;;;;;;;;;343867;28;1096;-72
2021/06/16 00:37:24;;;;;;;8.60;7.00;;;;;;;;;;344099;28;1102;-72
2021/06/16 00:37:36;;;;;;;8.95;7.07;;;;;;;;;;344020;28;1233;-72
2021/06/16 00:37:52;;;;;;;8.73;6.95;;;;;;;;;;344034;28;1090;-72
2021/06/16 00:38:05;;;;;;;10.40;7.05;;;;;;;;;;341679;28;63733;-72
2021/06/16 00:38:17;;;;;;;10.88;7.10;;;;;;;;;;343992;28;1095;-72
2021/06/16 00:38:29;;;;;;;10.00;7.15;;;;;;;;;;345224;28;1069;-72
2021/06/16 00:38:41;;;;;;;9.63;7.28;;;;;;;;;;345300;28;1070;-72
2021/06/16 00:38:54;;;;;;;10.45;6.95;;;;;;;;;;345447;28;1061;-72
2021/06/16 00:39:06;;;;;;;10.85;6.80;;;;;;;;;;345361;28;1490;-72
2021/06/16 00:39:18;;;;;;;10.15;6.78;;;;;;;;;;345353;28;1090;-72
2021/06/16 00:39:31;;;;;;;10.68;7.15;;;;;;;;;;345353;28;1018;-72
2021/06/16 00:39:43;;;;;;;10.55;7.20;;;;;;;;;;345585;28;1137;-72
2021/06/16 00:39:56;;;;;;;12.30;7.32;;;;;;;;;;345143;28;1130;-72
2021/06/16 00:40:12;;;;;;;11.52;7.22;;;;;;;;;;345436;28;1036;-72
2021/06/16 00:40:26;;;;;;;9.77;7.28;;;;;;;;;;343098;28;63657;-74
2021/06/16 00:40:38;;;;;;;9.20;7.22;;;;;;;;;;345252;28;1101;-72
2021/06/16 00:40:51;;;;;;;9.10;7.10;;;;;;;;;;345446;28;1392;-72
2021/06/16 00:41:03;;;;;;;8.88;7.03;;;;;;;;;;345192;28;1130;-72
2021/06/16 00:41:15;;;;;;;8.90;7.25;;;;;;;;;;345373;28;1073;-72
2021/06/16 00:41:27;;;;;;;11.07;7.25;;;;;;;;;;345224;28;1130;-72
2021/06/16 00:41:39;;;;;;;11.85;7.25;;;;;;;;;;345316;28;1106;-72
2021/06/16 00:41:55;;;;;;;11.05;7.70;;;;;;;;;;344064;28;39650;-72
2021/06/16 00:42:07;;;;;;;10.48;7.78;;;;;;;;;;345256;28;1078;-73
2021/06/16 00:42:23;;;;;;;10.68;7.40;;;;;;;;;;345310;28;1161;-72
2021/06/16 00:42:35;;;;;;;11.32;7.20;;;;;;;;;;343115;28;63031;-72
2021/06/16 00:42:47;;;;;;;11.38;7.28;;;;;;;;;;345197;28;1073;-72
2021/06/16 00:43:01;;;;;;;12.02;7.35;;;;;;;;;;345348;28;1169;-73
2021/06/16 00:43:13;;;;;;;11.38;7.30;;;;;;;;;;344635;28;16947;-72
2021/06/16 00:43:25;;;;;;;11.80;7.35;;;;;;;;;;345447;28;1093;-72
2021/06/16 00:43:37;;;;;;;10.32;7.05;;;;;;;;;;345310;28;1174;-72
2021/06/16 00:43:49;;;;;;;8.28;6.90;;;;;;;;;;345381;28;1191;-72
2021/06/16 00:44:02;;;;;;;8.48;6.82;;;;;;;;;;345311;28;1241;-73
2021/06/16 00:44:14;;;;;;;9.25;7.07;;;;;;;;;;344960;28;1186;-72
2021/06/16 00:44:26;;;;;;;9.70;7.32;;;;;;;;;;345160;28;1696;-72
2021/06/16 00:44:38;;;;;;;10.07;7.25;;;;;;;;;;345086;28;1637;-72
2021/06/16 00:44:51;;;;;;;10.10;7.00;;;;;;;;;;346714;28;1220;-74
2021/06/16 00:45:04;;;;;;;10.63;6.97;;;;;;;;;;346747;28;1075;-72
2021/06/16 00:45:20;;;;;;;10.32;7.03;;;;;;;;;;346721;28;1087;-72
2021/06/16 00:45:32;;;;;;;10.73;7.00;;;;;;;;;;345427;28;39649;-72
2021/06/16 00:45:44;;;;;;;11.55;6.80;;;;;;;;;;346549;28;1168;-72
2021/06/16 00:45:57;;;;;;;11.77;7.18;;;;;;;;;;346555;28;1053;-73
2021/06/16 00:46:09;;;;;;;10.40;7.22;;;;;;;;;;346662;28;1930;-73
2021/06/16 00:46:21;;;;;;;8.32;7.20;;;;;;;;;;346511;28;1347;-72
2021/06/16 00:46:33;;;;;;;9.55;7.18;;;;;;;;;;345233;28;1109;-72
2021/06/16 00:46:46;;;;;;;10.10;6.97;;;;;;;;;;345117;28;1085;-72
2021/06/16 00:46:58;;;;;;;11.95;7.55;;;;;;;;;;345350;28;1098;-72
2021/06/16 00:47:10;;;;;;;11.38;7.65;;;;;;;;;;345255;28;1324;-72
2021/06/16 00:47:22;;;;;;;10.13;7.60;;;;;;;;;;345116;28;1141;-72
2021/06/16 00:47:35;;;;;;;10.05;7.35;;;;;;;;;;343918;28;958;-72
2021/06/16 00:47:47;;;;;;;10.70;7.40;;;;;;;;;;343875;28;1161;-72
2021/06/16 00:47:59;;;;;;;10.77;7.55;;;;;;;;;;343830;28;1153;-72
2021/06/16 00:48:12;;;;;;;11.73;7.75;;;;;;;;;;343693;28;1067;-72
2021/06/16 00:48:24;;;;;;;11.20;7.80;;;;;;;;;;343897;28;1138;-72
2021/06/16 00:48:36;;;;;;;8.85;7.43;;;;;;;;;;344704;28;1340;-72
2021/06/16 00:48:48;;;;;;;8.30;7.25;;;;;;;;;;345297;28;1157;-72
2021/06/16 00:49:01;;;;;;;10.13;7.03;;;;;;;;;;343924;28;1165;-72
2021/06/16 00:49:13;;;;;;;11.00;7.18;;;;;;;;;;343976;28;1091;-72
2021/06/16 00:49:25;;;;;;;9.95;7.20;;;;;;;;;;343831;28;1094;-72
2021/06/16 00:49:37;;;;;;;11.13;7.47;;;;;;;;;;344642;28;1158;-72
2021/06/16 00:49:49;;;;;;;9.90;7.55;;;;;;;;;;345053;28;1148;-73
2021/06/16 00:50:03;;;;;;;10.98;7.65;;;;;;;;;;345200;28;1107;-72
2021/06/16 00:50:15;;;;;;;11.27;7.38;;;;;;;;;;345317;28;1221;-72
2021/06/16 00:50:27;;;;;;;10.43;7.25;;;;;;;;;;345140;28;999;-72
2021/06/16 00:50:40;;;;;;;9.18;7.20;;;;;;;;;;345152;28;995;-72
2021/06/16 00:50:53;;;;;;;10.07;7.40;;;;;;;;;;345177;28;1198;-72
2021/06/16 00:51:05;;;;;;;10.55;7.35;;;;;;;;;;346216;28;1046;-72
2021/06/16 00:51:17;;;;;;;10.98;7.30;;;;;;;;;;346530;28;1094;-72
2021/06/16 00:51:29;;;;;;;11.50;7.28;;;;;;;;;;346522;28;1217;-72
2021/06/16 00:51:41;;;;;;;11.02;7.20;;;;;;;;;;346547;28;1159;-72
2021/06/16 00:51:54;;;;;;;9.73;7.05;;;;;;;;;;346615;28;1314;-73
2021/06/16 00:52:06;;;;;;;8.82;7.15;;;;;;;;;;346572;28;1655;-74
2021/06/16 00:52:19;;;;;;;9.00;7.50;;;;;;;;;;346562;28;1140;-73
2021/06/16 00:52:31;;;;;;;8.82;7.38;;;;;;;;;;346523;28;1149;-73
2021/06/16 00:52:43;;;;;;;9.48;7.30;;;;;;;;;;346711;28;1106;-73
2021/06/16 00:52:55;;;;;;;10.10;7.22;;;;;;;;;;346384;28;1225;-72
2021/06/16 00:53:08;;;;;;;9.45;7.10;;;;;;;;;;346850;28;1145;-72
2021/06/16 00:53:20;;;;;;;9.50;6.93;;;;;;;;;;346596;28;1133;-73
2021/06/16 00:53:32;;;;;;;9.38;6.95;;;;;;;;;;346652;28;991;-72
2021/06/16 00:53:44;;;;;;;9.80;7.22;;;;;;;;;;346580;28;1081;-72
2021/06/16 00:53:56;;;;;;;11.45;7.60;;;;;;;;;;346632;28;1098;-73
2021/06/16 00:54:11;;;;;;;11.50;7.40;;;;;;;;;;346563;28;1137;-73
2021/06/16 00:54:23;;;;;;;12.23;7.50;;;;;;;;;;345297;28;39830;-72
2021/06/16 00:54:35;;;;;;;11.68;7.55;;;;;;;;;;346419;28;1106;-72
2021/06/16 00:54:47;;;;;;;11.52;7.38;;;;;;;;;;346704;28;1212;-72
2021/06/16 00:54:59;;;;;;;10.50;7.10;;;;;;;;;;346615;28;1105;-72
2021/06/16 00:55:12;;;;;;;9.15;7.10;;;;;;;;;;345664;28;1723;-72
2021/06/16 00:55:24;;;;;;;8.73;7.35;;;;;;;;;;346138;28;1723;-72
2021/06/16 00:55:38;;;;;;;10.63;7.65;;;;;;;;;;346476;28;1286;-72
2021/06/16 00:55:50;;;;;;;10.23;7.45;;;;;;;;;;345809;28;16400;-72
2021/06/16 00:56:03;;;;;;;9.95;7.43;;;;;;;;;;346560;28;1011;-72
2021/06/16 00:56:15;;;;;;;11.10;7.47;;;;;;;;;;346534;28;1101;-73
2021/06/16 00:56:27;;;;;;;11.45;7.55;;;;;;;;;;346530;28;1085;-73
2021/06/16 00:56:40;;;;;;;10.23;7.40;;;;;;;;;;346552;28;1052;-73
2021/06/16 00:56:52;;;;;;;10.32;7.43;;;;;;;;;;346651;28;1284;-72
2021/06/16 00:57:05;;;;;;;10.27;7.32;;;;;;;;;;346608;28;1056;-73
2021/06/16 00:57:18;;;;;;;9.85;7.47;;;;;;;;;;346725;28;1022;-72
2021/06/16 00:57:30;;;;;;;10.82;7.50;;;;;;;;;;346662;28;1066;-73
2021/06/16 00:57:42;;;;;;;10.48;7.70;;;;;;;;;;346640;28;1125;-72
2021/06/16 00:57:56;;;;;;;11.23;7.78;;;;;;;;;;346554;28;2077;-72
2021/06/16 00:58:09;;;;;;;9.93;7.60;;;;;;;;;;346586;28;1022;-73
2021/06/16 00:58:22;;;;;;;10.93;7.88;;;;;;;;;;346303;28;17182;-72
2021/06/16 00:58:34;;;;;;;11.32;8.05;;;;;;;;;;345255;28;1092;-72
2021/06/16 00:58:46;;;;;;;10.05;7.72;;;;;;;;;;345266;28;1040;-72
2021/06/16 00:58:58;;;;;;;9.02;7.28;;;;;;;;;;345177;28;1367;-72
2021/06/16 00:59:11;;;;;;;9.98;7.25;;;;;;;;;;345310;28;1115;-73
2021/06/16 00:59:23;;;;;;;9.80;7.40;;;;;;;;;;345043;28;1090;-72
2021/06/16 00:59:43;;;;;;;10.13;7.40;;;;;;;;;;345066;28;1072;-73
2021/06/16 00:59:55;;;;;;;9.68;7.32;;;;;;;;;;342418;28;86501;-73
2021/06/16 01:00:10;;;;;;;9.57;7.25;;;;;;;;;;345156;28;1042;-73
2021/06/16 01:00:27;;;;;;;9.27;7.22;;;;;;;;;;343718;28;40108;-72
2021/06/16 01:00:42;;;;;;;9.85;7.60;;;;;;;;;;340804;28;62670;-72
2021/06/16 01:00:54;;;;;;;9.75;7.80;;;;;;;;;;342253;28;17803;-72
2021/06/16 01:01:16;;;;;;;9.57;7.63;;;;;;;;;;342198;28;1081;-72
2021/06/16 01:01:28;;;;;;;10.75;7.63;;;;;;;;;;340602;28;63254;-72
2021/06/16 01:01:44;;;;;;;10.60;7.63;;;;;;;;;;343903;28;1059;-72
2021/06/16 01:01:59;;;;;;;10.98;7.93;;;;;;;;;;342141;28;62647;-72
2021/06/16 01:02:11;;;;;;;9.52;7.75;;;;;;;;;;343368;28;16684;-72
2021/06/16 01:02:24;;;;;;;8.50;7.60;;;;;;;;;;343800;28;1002;-72
2021/06/16 01:02:46;;;;;;;9.95;7.85;;;;;;;;;;344228;28;1075;-72
2021/06/16 01:03:12;;;;;;;11.32;7.63;;;;;;;;;;343094;28;61580;-72
2021/06/16 01:03:27;;;;;;;8.95;7.47;;;;;;;;;;341758;28;62216;-72
2021/06/16 01:03:41;;;;;;;8.98;7.40;;;;;;;;;;342137;28;41048;-72
2021/06/16 01:03:57;;;;;;;8.73;7.47;;;;;;;;;;342010;28;16369;-72
2021/06/16 01:04:09;;;;;;;9.43;7.95;;;;;;;;;;340337;28;63773;-72
2021/06/16 01:04:23;;;;;;;10.00;7.75;;;;;;;;;;342811;28;989;-72
2021/06/16 01:04:35;;;;;;;10.00;7.63;;;;;;;;;;342751;28;1208;-72
2021/06/16 01:04:51;;;;;;;10.07;7.72;;;;;;;;;;342895;28;1106;-72
2021/06/16 01:05:04;;;;;;;9.05;8.02;;;;;;;;;;340469;28;63806;-72
2021/06/16 01:05:17;;;;;;;9.77;8.40;;;;;;;;;;342646;28;1169;-72
2021/06/16 01:05:38;;;;;;;9.38;8.38;;;;;;;;;;343941;28;1076;-72
2021/06/16 01:06:08;;;;;;;9.15;8.20;;;;;;;;;;342995;28;63550;-72
2021/06/16 01:06:28;;;;;;;10.80;8.13;;;;;;;;;;342205;28;63359;-72
2021/06/16 01:06:49;;;;;;;11.05;8.48;;;;;;;;;;341917;28;63000;-72
2021/06/16 01:07:06;;;;;;;10.23;8.25;;;;;;;;;;341794;28;62678;-72
2021/06/16 01:07:20;;;;;;;11.80;8.35;;;;;;;;;;341935;28;63805;-72
2021/06/16 01:07:37;;;;;;;11.18;8.30;;;;;;;;;;343460;28;16976;-72
2021/06/16 01:07:52;;;;;;;9.77;8.02;;;;;;;;;;341777;28;62805;-72
2021/06/16 01:08:04;;;;;;;9.95;8.10;;;;;;;;;;342741;28;40145;-72
2021/06/16 01:08:17;;;;;;;10.82;8.20;;;;;;;;;;344104;28;1078;-72
2021/06/16 01:08:35;;;;;;;12.13;8.52;;;;;;;;;;343500;28;16189;-72
2021/06/16 01:08:53;;;;;;;11.10;8.38;;;;;;;;;;341889;28;63672;-73
2021/06/16 01:09:25;;;;;;;10.07;8.40;;;;;;;;;;341851;28;62523;-72
2021/06/16 01:09:37;;;;;;;11.80;8.52;;;;;;;;;;340266;28;62438;-72
2021/06/16 01:09:56;;;;;;;11.68;8.48;;;;;;;;;;342614;28;1058;-71
2021/06/16 01:10:12;;;;;;;8.68;7.78;;;;;;;;;;343247;28;64184;-72
2021/06/16 01:10:25;;;;;;;9.60;8.13;;;;;;;;;;344574;28;64011;-72
2021/06/16 01:10:40;;;;;;;11.35;8.50;;;;;;;;;;345253;28;1325;-72
2021/06/16 01:10:53;;;;;;;11.38;8.85;;;;;;;;;;344772;28;17030;-72
2021/06/16 01:11:09;;;;;;;11.95;9.00;;;;;;;;;;344498;28;17022;-72
2021/06/16 01:11:23;;;;;;;12.25;8.57;;;;;;;;;;343150;28;63041;-72
2021/06/16 01:11:36;;;;;;;13.45;8.65;;;;;;;;;;344438;28;16749;-73
2021/06/16 01:11:48;;;;;;;12.13;8.52;;;;;;;;;;345131;28;1090;-72
2021/06/16 01:12:19;;;;;;;9.63;8.10;;;;;;;;;;345248;28;989;-72
2021/06/16 01:12:37;;;;;;;10.85;8.57;;;;;;;;;;341471;28;63268;-73
2021/06/16 01:12:56;;;;;;;10.82;8.30;;;;;;;;;;343117;28;63923;-72
2021/06/16 01:13:10;;;;;;;9.98;8.43;;;;;;;;;;342940;28;63561;-72
2021/06/16 01:13:31;;;;;;;11.93;8.70;;;;;;;;;;345271;28;39693;-72
2021/06/16 01:13:51;;;;;;;11.27;8.35;;;;;;;;;;344369;28;63549;-73
2021/06/16 01:14:07;;;;;;;12.13;8.70;;;;;;;;;;344761;28;63161;-72
2021/06/16 01:14:21;;;;;;;11.02;8.45;;;;;;;;;;344431;28;61392;-72
2021/06/16 01:14:36;;;;;;;10.88;8.13;;;;;;;;;;345766;28;16610;-72
2021/06/16 01:15:00;;;;;;;12.57;8.13;;;;;;;;;;345018;28;40155;-72
2021/06/16 01:15:20;;;;;;;10.23;7.85;;;;;;;;;;344410;28;62643;-73
2021/06/16 01:15:53;;;;;;;11.15;8.45;;;;;;;;;;343112;28;63374;-72
2021/06/16 01:16:08;;;;;;;9.73;8.40;;;;;;;;;;341463;28;63255;-72
2021/06/16 01:16:29;;;;;;;11.45;8.68;;;;;;;;;;341446;28;64066;-72
2021/06/16 01:16:46;;;;;;;11.25;9.00;;;;;;;;;;342299;28;64580;-72
2021/06/16 01:17:01;;;;;;;9.90;8.75;;;;;;;;;;343080;28;62443;-72
2021/06/16 01:17:17;;;;;;;10.48;8.73;;;;;;;;;;343889;28;39679;-72
2021/06/16 01:17:38;;;;;;;10.93;8.80;;;;;;;;;;343000;28;62587;-72
2021/06/16 01:17:52;;;;;;;10.45;8.40;;;;;;;;;;342942;28;62674;-72
2021/06/16 01:18:05;;;;;;;11.18;8.55;;;;;;;;;;344575;28;16670;-73
2021/06/16 01:18:19;;;;;;;12.07;8.95;;;;;;;;;;344968;28;1182;-72
2021/06/16 01:18:35;;;;;;;11.18;8.60;;;;;;;;;;344558;28;17239;-72
2021/06/16 01:18:50;;;;;;;10.80;8.50;;;;;;;;;;343038;28;63788;-72
2021/06/16 01:19:08;;;;;;;10.73;8.82;;;;;;;;;;341597;28;64355;-72
2021/06/16 01:19:41;;;;;;;10.48;8.95;;;;;;;;;;341587;28;63811;-72
2021/06/16 01:19:59;;;;;;;12.32;8.90;;;;;;;;;;341515;28;64425;-72
2021/06/16 01:20:26;;;;;;;11.65;8.93;;;;;;;;;;341647;28;63936;-72
2021/06/16 01:20:43;;;;;;;13.10;9.70;;;;;;;;;;341864;28;63169;-72
2021/06/16 01:20:56;;;;;;;12.65;9.27;;;;;;;;;;341742;28;63500;-72
2021/06/16 01:21:08;;;;;;;12.10;9.20;;;;;;;;;;345158;28;1230;-72
2021/06/16 01:21:22;;;;;;;11.15;9.07;;;;;;;;;;345127;28;1007;-72
2021/06/16 01:21:36;;;;;;;10.15;8.60;;;;;;;;;;345097;28;1098;-72
2021/06/16 01:21:54;;;;;;;10.43;8.85;;;;;;;;;;344369;28;16611;-72
2021/06/16 01:22:11;;;;;;;11.48;9.20;;;;;;;;;;343042;28;63001;-72
2021/06/16 01:22:43;;;;;;;12.80;9.35;;;;;;;;;;342994;28;63583;-73
2021/06/16 01:22:56;;;;;;;11.75;9.32;;;;;;;;;;338853;29;64641;-72
2021/06/16 01:23:08;;;;;;;12.13;9.85;;;;;;;;;;341149;29;1288;-72